sensor_id;sensor_type;location;lat;lon;timestamp;P1;durP1;ratioP1;P2;durP2;ratioP2
2452;SDS011;63678;47.994;7.854;2023-06-26T00:01:14;9.90;;;7.07;;
2452;SDS011;63678;47.994;7.854;2023-06-26T00:03:47;10.10;;;7.30;;
2452;SDS011;63678;47.994;7.854;2023-06-26T00:06:19;9.77;;;6.78;;
2452;SDS011;63678;47.994;7.854;2023-06-26T00:08:53;10.15;;;7.32;;
2452;SDS011;63678;47.994;7.854;2023-06-26T00:11:25;10.35;;;7.50;;
2452;SDS011;63678;47.994;7.854;2023-06-26T00:13:59;12.50;;;6.85;;
2452;SDS011;63678;47.994;7.854;2023-06-26T00:16:33;10.37;;;7.10;;
2452;SDS011;63678;47.994;7.854;2023-06-26T00:19:05;9.10;;;6.93;;
2452;SDS011;63678;47.994;7.854;2023-06-26T00:21:38;12.80;;;7.18;;
2452;SDS011;63678;47.994;7.854;2023-06-26T00:24:10;11.20;;;7.07;;
2452;SDS011;63678;47.994;7.854;2023-06-26T00:26:46;9.27;;;6.50;;
2452;SDS011;63678;47.994;7.854;2023-06-26T00:29:19;10.63;;;7.13;;
2452;SDS011;63678;47.994;7.854;2023-06-26T00:31:51;10.57;;;7.13;;
2452;SDS011;63678;47.994;7.854;2023-06-26T00:34:24;10.50;;;7.22;;
2452;SDS011;63678;47.994;7.854;2023-06-26T00:36:56;10.07;;;7.18;;
2452;SDS011;63678;47.994;7.854;2023-06-26T00:39:49;10.40;;;7.05;;
2452;SDS011;63678;47.994;7.854;2023-06-26T00:42:22;10.13;;;6.77;;
2452;SDS011;63678;47.994;7.854;2023-06-26T00:44:54;11.27;;;6.75;;
2452;SDS011;63678;47.994;7.854;2023-06-26T00:47:27;10.65;;;7.75;;
2452;SDS011;63678;47.994;7.854;2023-06-26T00:50:01;10.57;;;7.60;;
2452;SDS011;63678;47.994;7.854;2023-06-26T00:52:34;11.07;;;6.90;;
2452;SDS011;63678;47.994;7.854;2023-06-26T00:55:07;10.93;;;7.10;;
2452;SDS011;63678;47.994;7.854;2023-06-26T00:57:40;9.50;;;6.78;;
2452;SDS011;63678;47.994;7.854;2023-06-26T01:00:35;11.48;;;6.90;;
2452;SDS011;63678;47.994;7.854;2023-06-26T01:03:08;9.55;;;6.63;;
2452;SDS011;63678;47.994;7.854;2023-06-26T01:05:40;11.65;;;7.43;;
2452;SDS011;63678;47.994;7.854;2023-06-26T01:08:17;15.27;;;7.50;;
2452;SDS011;63678;47.994;7.854;2023-06-26T01:10:50;10.65;;;7.53;;
2452;SDS011;63678;47.994;7.854;2023-06-26T01:13:23;8.45;;;6.32;;
2452;SDS011;63678;47.994;7.854;2023-06-26T01:15:57;11.73;;;7.68;;
2452;SDS011;63678;47.994;7.854;2023-06-26T01:18:30;9.45;;;6.47;;
2452;SDS011;63678;47.994;7.854;2023-06-26T01:21:04;10.70;;;7.43;;
2452;SDS011;63678;47.994;7.854;2023-06-26T01:23:38;11.13;;;7.63;;
2452;SDS011;63678;47.994;7.854;2023-06-26T01:26:55;10.82;;;7.60;;
2452;SDS011;63678;47.994;7.854;2023-06-26T01:29:32;11.40;;;6.72;;
2452;SDS011;63678;47.994;7.854;2023-06-26T01:32:05;11.15;;;6.95;;
2452;SDS011;63678;47.994;7.854;2023-06-26T01:34:38;11.67;;;7.20;;
2452;SDS011;63678;47.994;7.854;2023-06-26T01:37:11;11.52;;;7.15;;
2452;SDS011;63678;47.994;7.854;2023-06-26T01:39:44;9.90;;;6.80;;
2452;SDS011;63678;47.994;7.854;2023-06-26T01:42:17;10.57;;;6.80;;
2452;SDS011;63678;47.994;7.854;2023-06-26T01:44:49;10.45;;;6.95;;
2452;SDS011;63678;47.994;7.854;2023-06-26T01:47:24;10.37;;;6.67;;
2452;SDS011;63678;47.994;7.854;2023-06-26T01:50:05;12.02;;;7.00;;
2452;SDS011;63678;47.994;7.854;2023-06-26T01:55:30;9.25;;;6.57;;
2452;SDS011;63678;47.994;7.854;2023-06-26T01:58:12;10.82;;;7.10;;
2452;SDS011;63678;47.994;7.854;2023-06-26T02:00:46;10.57;;;7.20;;
2452;SDS011;63678;47.994;7.854;2023-06-26T02:03:19;10.65;;;7.18;;
2452;SDS011;63678;47.994;7.854;2023-06-26T02:05:52;10.60;;;7.35;;
2452;SDS011;63678;47.994;7.854;2023-06-26T02:08:25;13.43;;;7.60;;
2452;SDS011;63678;47.994;7.854;2023-06-26T02:11:00;11.27;;;6.90;;
2452;SDS011;63678;47.994;7.854;2023-06-26T02:13:33;11.80;;;7.17;;
2452;SDS011;63678;47.994;7.854;2023-06-26T02:16:05;11.23;;;7.40;;
2452;SDS011;63678;47.994;7.854;2023-06-26T02:18:38;10.70;;;7.32;;
2452;SDS011;63678;47.994;7.854;2023-06-26T02:21:10;10.02;;;7.03;;
2452;SDS011;63678;47.994;7.854;2023-06-26T02:23:43;10.25;;;7.13;;
2452;SDS011;63678;47.994;7.854;2023-06-26T02:26:16;10.97;;;6.90;;
2452;SDS011;63678;47.994;7.854;2023-06-26T02:28:48;10.85;;;7.20;;
2452;SDS011;63678;47.994;7.854;2023-06-26T02:31:21;10.40;;;6.80;;
2452;SDS011;63678;47.994;7.854;2023-06-26T02:33:59;9.98;;;7.22;;
2452;SDS011;63678;47.994;7.854;2023-06-26T02:36:34;10.27;;;7.30;;
2452;SDS011;63678;47.994;7.854;2023-06-26T02:39:09;12.30;;;6.67;;
2452;SDS011;63678;47.994;7.854;2023-06-26T02:41:43;10.23;;;6.85;;
2452;SDS011;63678;47.994;7.854;2023-06-26T02:44:16;10.32;;;6.93;;
2452;SDS011;63678;47.994;7.854;2023-06-26T02:46:49;10.85;;;6.95;;
2452;SDS011;63678;47.994;7.854;2023-06-26T02:49:21;10.75;;;6.82;;
2452;SDS011;63678;47.994;7.854;2023-06-26T02:51:54;10.93;;;7.03;;
2452;SDS011;63678;47.994;7.854;2023-06-26T02:54:30;12.07;;;6.70;;
2452;SDS011;63678;47.994;7.854;2023-06-26T02:57:07;11.25;;;6.97;;
2452;SDS011;63678;47.994;7.854;2023-06-26T02:59:39;10.18;;;6.82;;
2452;SDS011;63678;47.994;7.854;2023-06-26T03:02:13;11.02;;;7.07;;
2452;SDS011;63678;47.994;7.854;2023-06-26T03:04:49;9.50;;;7.03;;
2452;SDS011;63678;47.994;7.854;2023-06-26T03:07:21;10.60;;;7.10;;
2452;SDS011;63678;47.994;7.854;2023-06-26T03:09:56;12.07;;;7.13;;
2452;SDS011;63678;47.994;7.854;2023-06-26T03:12:29;11.10;;;7.38;;
2452;SDS011;63678;47.994;7.854;2023-06-26T03:15:01;11.07;;;7.22;;
2452;SDS011;63678;47.994;7.854;2023-06-26T03:17:34;12.40;;;7.30;;
2452;SDS011;63678;47.994;7.854;2023-06-26T03:20:10;10.80;;;7.47;;
2452;SDS011;63678;47.994;7.854;2023-06-26T03:22:51;11.73;;;6.88;;
2452;SDS011;63678;47.994;7.854;2023-06-26T03:25:25;11.43;;;7.07;;
2452;SDS011;63678;47.994;7.854;2023-06-26T03:28:12;11.07;;;6.80;;
2452;SDS011;63678;47.994;7.854;2023-06-26T03:30:44;11.20;;;6.93;;
2452;SDS011;63678;47.994;7.854;2023-06-26T03:33:17;9.25;;;6.88;;
2452;SDS011;63678;47.994;7.854;2023-06-26T03:35:49;12.52;;;7.43;;
2452;SDS011;63678;47.994;7.854;2023-06-26T03:38:22;10.32;;;6.75;;
2452;SDS011;63678;47.994;7.854;2023-06-26T03:40:57;9.85;;;6.65;;
2452;SDS011;63678;47.994;7.854;2023-06-26T03:43:30;10.00;;;7.10;;
2452;SDS011;63678;47.994;7.854;2023-06-26T03:46:12;10.90;;;7.05;;
2452;SDS011;63678;47.994;7.854;2023-06-26T03:48:46;9.15;;;6.55;;
2452;SDS011;63678;47.994;7.854;2023-06-26T03:51:19;9.85;;;6.60;;
2452;SDS011;63678;47.994;7.854;2023-06-26T03:53:52;12.60;;;7.20;;
2452;SDS011;63678;47.994;7.854;2023-06-26T03:56:25;10.23;;;7.57;;
2452;SDS011;63678;47.994;7.854;2023-06-26T03:58:58;11.57;;;6.93;;
2452;SDS011;63678;47.994;7.854;2023-06-26T04:01:31;11.35;;;7.40;;
2452;SDS011;63678;47.994;7.854;2023-06-26T04:04:06;9.30;;;6.72;;
2452;SDS011;63678;47.994;7.854;2023-06-26T04:06:38;8.98;;;6.75;;
2452;SDS011;63678;47.994;7.854;2023-06-26T04:09:11;12.00;;;7.03;;
2452;SDS011;63678;47.994;7.854;2023-06-26T04:11:43;11.85;;;7.13;;
2452;SDS011;63678;47.994;7.854;2023-06-26T04:14:16;13.98;;;7.88;;
2452;SDS011;63678;47.994;7.854;2023-06-26T04:16:49;10.38;;;7.03;;
2452;SDS011;63678;47.994;7.854;2023-06-26T04:19:21;13.05;;;7.32;;
2452;SDS011;63678;47.994;7.854;2023-06-26T04:21:53;11.53;;;7.70;;
2452;SDS011;63678;47.994;7.854;2023-06-26T04:24:26;9.20;;;6.43;;
2452;SDS011;63678;47.994;7.854;2023-06-26T04:26:59;9.15;;;6.60;;
2452;SDS011;63678;47.994;7.854;2023-06-26T04:29:31;11.25;;;7.43;;
2452;SDS011;63678;47.994;7.854;2023-06-26T04:32:03;9.80;;;6.90;;
2452;SDS011;63678;47.994;7.854;2023-06-26T04:34:36;10.27;;;6.70;;
2452;SDS011;63678;47.994;7.854;2023-06-26T04:37:15;11.68;;;7.70;;
2452;SDS011;63678;47.994;7.854;2023-06-26T04:39:50;9.93;;;7.30;;
2452;SDS011;63678;47.994;7.854;2023-06-26T04:42:22;9.70;;;7.43;;
2452;SDS011;63678;47.994;7.854;2023-06-26T04:44:55;11.88;;;6.70;;
2452;SDS011;63678;47.994;7.854;2023-06-26T04:47:46;13.67;;;7.13;;
2452;SDS011;63678;47.994;7.854;2023-06-26T04:50:19;11.30;;;7.00;;
2452;SDS011;63678;47.994;7.854;2023-06-26T04:52:51;10.90;;;7.20;;
2452;SDS011;63678;47.994;7.854;2023-06-26T04:55:23;12.88;;;7.97;;
2452;SDS011;63678;47.994;7.854;2023-06-26T04:57:56;10.50;;;7.78;;
2452;SDS011;63678;47.994;7.854;2023-06-26T05:00:29;10.43;;;7.10;;
2452;SDS011;63678;47.994;7.854;2023-06-26T05:03:03;11.60;;;7.00;;
2452;SDS011;63678;47.994;7.854;2023-06-26T05:05:36;10.77;;;7.18;;
2452;SDS011;63678;47.994;7.854;2023-06-26T05:08:15;10.75;;;7.70;;
2452;SDS011;63678;47.994;7.854;2023-06-26T05:10:54;17.23;;;7.55;;
2452;SDS011;63678;47.994;7.854;2023-06-26T05:13:30;11.73;;;6.80;;
2452;SDS011;63678;47.994;7.854;2023-06-26T05:16:02;10.57;;;7.07;;
2452;SDS011;63678;47.994;7.854;2023-06-26T05:18:35;12.48;;;7.35;;
2452;SDS011;63678;47.994;7.854;2023-06-26T05:21:08;13.00;;;7.47;;
2452;SDS011;63678;47.994;7.854;2023-06-26T05:23:41;9.82;;;6.82;;
2452;SDS011;63678;47.994;7.854;2023-06-26T05:26:15;11.30;;;7.80;;
2452;SDS011;63678;47.994;7.854;2023-06-26T05:28:48;8.85;;;6.47;;
2452;SDS011;63678;47.994;7.854;2023-06-26T05:31:22;9.32;;;6.88;;
2452;SDS011;63678;47.994;7.854;2023-06-26T05:33:55;12.20;;;7.53;;
2452;SDS011;63678;47.994;7.854;2023-06-26T05:36:29;13.63;;;7.43;;
2452;SDS011;63678;47.994;7.854;2023-06-26T05:39:06;9.83;;;6.93;;
2452;SDS011;63678;47.994;7.854;2023-06-26T05:41:39;10.07;;;7.35;;
2452;SDS011;63678;47.994;7.854;2023-06-26T05:44:12;10.55;;;7.43;;
2452;SDS011;63678;47.994;7.854;2023-06-26T05:46:45;10.75;;;6.32;;
2452;SDS011;63678;47.994;7.854;2023-06-26T05:49:18;10.35;;;7.03;;
2452;SDS011;63678;47.994;7.854;2023-06-26T05:51:50;11.63;;;7.43;;
2452;SDS011;63678;47.994;7.854;2023-06-26T05:54:23;10.27;;;7.53;;
2452;SDS011;63678;47.994;7.854;2023-06-26T05:56:57;10.73;;;7.28;;
2452;SDS011;63678;47.994;7.854;2023-06-26T05:59:54;9.60;;;6.82;;
2452;SDS011;63678;47.994;7.854;2023-06-26T06:02:28;9.82;;;7.40;;
2452;SDS011;63678;47.994;7.854;2023-06-26T06:05:02;10.57;;;6.80;;
2452;SDS011;63678;47.994;7.854;2023-06-26T06:07:35;12.48;;;7.95;;
2452;SDS011;63678;47.994;7.854;2023-06-26T06:10:27;11.07;;;7.25;;
2452;SDS011;63678;47.994;7.854;2023-06-26T06:12:59;10.27;;;7.25;;
2452;SDS011;63678;47.994;7.854;2023-06-26T06:15:32;12.18;;;7.88;;
2452;SDS011;63678;47.994;7.854;2023-06-26T06:18:06;10.60;;;7.40;;
2452;SDS011;63678;47.994;7.854;2023-06-26T06:21:02;15.25;;;7.00;;
2452;SDS011;63678;47.994;7.854;2023-06-26T06:23:36;9.45;;;7.13;;
2452;SDS011;63678;47.994;7.854;2023-06-26T06:26:10;10.80;;;7.55;;
2452;SDS011;63678;47.994;7.854;2023-06-26T06:28:42;10.68;;;7.63;;
2452;SDS011;63678;47.994;7.854;2023-06-26T06:31:15;11.20;;;7.20;;
2452;SDS011;63678;47.994;7.854;2023-06-26T06:33:48;12.43;;;7.57;;
2452;SDS011;63678;47.994;7.854;2023-06-26T06:36:21;12.70;;;7.57;;
2452;SDS011;63678;47.994;7.854;2023-06-26T06:38:54;12.85;;;7.20;;
2452;SDS011;63678;47.994;7.854;2023-06-26T06:41:26;8.38;;;6.50;;
2452;SDS011;63678;47.994;7.854;2023-06-26T06:44:00;10.20;;;6.83;;
2452;SDS011;63678;47.994;7.854;2023-06-26T06:46:32;9.45;;;6.78;;
2452;SDS011;63678;47.994;7.854;2023-06-26T06:49:05;9.73;;;6.53;;
2452;SDS011;63678;47.994;7.854;2023-06-26T06:51:38;21.80;;;7.72;;
2452;SDS011;63678;47.994;7.854;2023-06-26T06:54:10;12.77;;;7.00;;
2452;SDS011;63678;47.994;7.854;2023-06-26T06:56:43;10.40;;;6.67;;
2452;SDS011;63678;47.994;7.854;2023-06-26T06:59:16;10.25;;;6.78;;
2452;SDS011;63678;47.994;7.854;2023-06-26T07:01:48;11.10;;;7.10;;
2452;SDS011;63678;47.994;7.854;2023-06-26T07:04:21;8.25;;;6.20;;
2452;SDS011;63678;47.994;7.854;2023-06-26T07:06:55;8.38;;;6.22;;
2452;SDS011;63678;47.994;7.854;2023-06-26T07:09:28;12.50;;;7.17;;
2452;SDS011;63678;47.994;7.854;2023-06-26T07:12:01;9.20;;;6.45;;
2452;SDS011;63678;47.994;7.854;2023-06-26T07:14:36;8.68;;;6.95;;
2452;SDS011;63678;47.994;7.854;2023-06-26T07:17:11;11.20;;;7.20;;
2452;SDS011;63678;47.994;7.854;2023-06-26T07:19:44;9.48;;;6.18;;
2452;SDS011;63678;47.994;7.854;2023-06-26T07:22:16;13.13;;;6.57;;
2452;SDS011;63678;47.994;7.854;2023-06-26T07:24:54;9.10;;;6.70;;
2452;SDS011;63678;47.994;7.854;2023-06-26T07:27:26;8.35;;;6.55;;
2452;SDS011;63678;47.994;7.854;2023-06-26T07:30:00;10.73;;;6.78;;
2452;SDS011;63678;47.994;7.854;2023-06-26T07:32:33;8.82;;;6.45;;
2452;SDS011;63678;47.994;7.854;2023-06-26T07:35:06;10.30;;;7.20;;
2452;SDS011;63678;47.994;7.854;2023-06-26T07:37:40;9.68;;;6.60;;
2452;SDS011;63678;47.994;7.854;2023-06-26T07:40:12;8.57;;;6.43;;
2452;SDS011;63678;47.994;7.854;2023-06-26T07:42:44;9.55;;;6.45;;
2452;SDS011;63678;47.994;7.854;2023-06-26T07:45:18;12.20;;;6.28;;
2452;SDS011;63678;47.994;7.854;2023-06-26T07:47:52;8.03;;;5.73;;
2452;SDS011;63678;47.994;7.854;2023-06-26T07:50:25;8.40;;;6.30;;
2452;SDS011;63678;47.994;7.854;2023-06-26T07:52:58;8.90;;;6.10;;
2452;SDS011;63678;47.994;7.854;2023-06-26T07:55:31;9.45;;;6.00;;
2452;SDS011;63678;47.994;7.854;2023-06-26T07:58:04;9.57;;;6.45;;
2452;SDS011;63678;47.994;7.854;2023-06-26T08:00:37;13.97;;;6.33;;
2452;SDS011;63678;47.994;7.854;2023-06-26T08:03:10;10.68;;;6.20;;
2452;SDS011;63678;47.994;7.854;2023-06-26T08:06:04;8.70;;;6.25;;
2452;SDS011;63678;47.994;7.854;2023-06-26T08:08:36;8.65;;;6.18;;
2452;SDS011;63678;47.994;7.854;2023-06-26T08:11:09;9.00;;;5.97;;
2452;SDS011;63678;47.994;7.854;2023-06-26T08:13:42;9.23;;;6.50;;
2452;SDS011;63678;47.994;7.854;2023-06-26T08:16:16;8.95;;;6.53;;
2452;SDS011;63678;47.994;7.854;2023-06-26T08:18:48;9.32;;;6.60;;
2452;SDS011;63678;47.994;7.854;2023-06-26T08:21:22;10.18;;;6.72;;
2452;SDS011;63678;47.994;7.854;2023-06-26T08:23:55;9.70;;;6.88;;
2452;SDS011;63678;47.994;7.854;2023-06-26T08:26:27;11.07;;;6.70;;
2452;SDS011;63678;47.994;7.854;2023-06-26T08:28:59;9.23;;;6.40;;
2452;SDS011;63678;47.994;7.854;2023-06-26T08:31:36;10.75;;;6.32;;
2452;SDS011;63678;47.994;7.854;2023-06-26T08:34:13;10.90;;;6.82;;
2452;SDS011;63678;47.994;7.854;2023-06-26T08:36:46;11.88;;;7.15;;
2452;SDS011;63678;47.994;7.854;2023-06-26T08:39:18;8.10;;;6.43;;
2452;SDS011;63678;47.994;7.854;2023-06-26T08:41:52;8.73;;;6.13;;
2452;SDS011;63678;47.994;7.854;2023-06-26T08:44:25;9.10;;;7.00;;
2452;SDS011;63678;47.994;7.854;2023-06-26T08:46:59;8.82;;;6.88;;
2452;SDS011;63678;47.994;7.854;2023-06-26T08:49:34;10.65;;;7.38;;
2452;SDS011;63678;47.994;7.854;2023-06-26T08:52:28;12.67;;;7.87;;
2452;SDS011;63678;47.994;7.854;2023-06-26T08:55:06;11.68;;;7.22;;
2452;SDS011;63678;47.994;7.854;2023-06-26T08:57:42;9.93;;;7.10;;
2452;SDS011;63678;47.994;7.854;2023-06-26T09:00:18;11.40;;;6.90;;
2452;SDS011;63678;47.994;7.854;2023-06-26T09:02:51;13.40;;;7.75;;
2452;SDS011;63678;47.994;7.854;2023-06-26T09:05:24;11.40;;;6.77;;
2452;SDS011;63678;47.994;7.854;2023-06-26T09:07:59;12.02;;;7.28;;
2452;SDS011;63678;47.994;7.854;2023-06-26T09:10:31;12.05;;;7.72;;
2452;SDS011;63678;47.994;7.854;2023-06-26T09:13:04;11.45;;;7.47;;
2452;SDS011;63678;47.994;7.854;2023-06-26T09:15:53;10.73;;;7.43;;
2452;SDS011;63678;47.994;7.854;2023-06-26T09:18:26;9.57;;;6.87;;
2452;SDS011;63678;47.994;7.854;2023-06-26T09:20:58;11.15;;;7.22;;
2452;SDS011;63678;47.994;7.854;2023-06-26T09:23:30;10.57;;;7.70;;
2452;SDS011;63678;47.994;7.854;2023-06-26T09:26:04;11.98;;;7.65;;
2452;SDS011;63678;47.994;7.854;2023-06-26T09:28:37;11.32;;;7.97;;
2452;SDS011;63678;47.994;7.854;2023-06-26T09:31:10;10.73;;;8.37;;
2452;SDS011;63678;47.994;7.854;2023-06-26T09:33:47;10.20;;;7.82;;
2452;SDS011;63678;47.994;7.854;2023-06-26T09:36:21;9.52;;;7.25;;
2452;SDS011;63678;47.994;7.854;2023-06-26T09:38:55;10.15;;;7.50;;
2452;SDS011;63678;47.994;7.854;2023-06-26T09:41:28;11.98;;;8.27;;
2452;SDS011;63678;47.994;7.854;2023-06-26T09:44:02;12.30;;;8.27;;
2452;SDS011;63678;47.994;7.854;2023-06-26T09:46:37;13.98;;;7.60;;
2452;SDS011;63678;47.994;7.854;2023-06-26T09:49:10;13.10;;;8.13;;
2452;SDS011;63678;47.994;7.854;2023-06-26T09:51:43;11.68;;;8.27;;
2452;SDS011;63678;47.994;7.854;2023-06-26T09:54:16;11.73;;;8.40;;
2452;SDS011;63678;47.994;7.854;2023-06-26T09:56:51;17.37;;;8.43;;
2452;SDS011;63678;47.994;7.854;2023-06-26T09:59:24;14.45;;;8.43;;
2452;SDS011;63678;47.994;7.854;2023-06-26T10:01:58;11.45;;;8.25;;
2452;SDS011;63678;47.994;7.854;2023-06-26T10:04:32;12.68;;;8.38;;
2452;SDS011;63678;47.994;7.854;2023-06-26T10:07:06;11.45;;;8.60;;
2452;SDS011;63678;47.994;7.854;2023-06-26T10:09:49;15.53;;;8.93;;
2452;SDS011;63678;47.994;7.854;2023-06-26T10:12:29;12.82;;;8.57;;
2452;SDS011;63678;47.994;7.854;2023-06-26T10:15:02;10.48;;;8.05;;
2452;SDS011;63678;47.994;7.854;2023-06-26T10:17:37;16.13;;;8.77;;
2452;SDS011;63678;47.994;7.854;2023-06-26T10:20:13;13.13;;;8.32;;
2452;SDS011;63678;47.994;7.854;2023-06-26T10:22:47;12.33;;;8.03;;
2452;SDS011;63678;47.994;7.854;2023-06-26T10:25:20;12.10;;;7.72;;
2452;SDS011;63678;47.994;7.854;2023-06-26T10:27:55;14.57;;;8.18;;
2452;SDS011;63678;47.994;7.854;2023-06-26T10:30:31;12.70;;;8.60;;
2452;SDS011;63678;47.994;7.854;2023-06-26T10:33:07;12.38;;;8.10;;
2452;SDS011;63678;47.994;7.854;2023-06-26T10:35:41;11.17;;;8.80;;
2452;SDS011;63678;47.994;7.854;2023-06-26T10:38:15;12.27;;;8.30;;
2452;SDS011;63678;47.994;7.854;2023-06-26T10:40:48;11.77;;;8.13;;
2452;SDS011;63678;47.994;7.854;2023-06-26T10:43:29;13.68;;;8.20;;
2452;SDS011;63678;47.994;7.854;2023-06-26T10:46:02;15.65;;;8.63;;
2452;SDS011;63678;47.994;7.854;2023-06-26T10:48:44;13.77;;;7.93;;
2452;SDS011;63678;47.994;7.854;2023-06-26T10:51:28;13.13;;;8.77;;
2452;SDS011;63678;47.994;7.854;2023-06-26T10:54:01;12.18;;;8.30;;
2452;SDS011;63678;47.994;7.854;2023-06-26T10:56:46;12.45;;;8.27;;
2452;SDS011;63678;47.994;7.854;2023-06-26T10:59:21;13.95;;;8.80;;
2452;SDS011;63678;47.994;7.854;2023-06-26T11:01:56;11.80;;;8.60;;
2452;SDS011;63678;47.994;7.854;2023-06-26T11:04:45;11.90;;;7.82;;
2452;SDS011;63678;47.994;7.854;2023-06-26T11:07:20;12.25;;;8.20;;
2452;SDS011;63678;47.994;7.854;2023-06-26T11:09:58;10.95;;;8.02;;
2452;SDS011;63678;47.994;7.854;2023-06-26T11:12:37;13.85;;;11.70;;
2452;SDS011;63678;47.994;7.854;2023-06-26T11:15:17;11.83;;;8.33;;
2452;SDS011;63678;47.994;7.854;2023-06-26T11:17:50;12.02;;;9.15;;
2452;SDS011;63678;47.994;7.854;2023-06-26T11:20:24;13.85;;;8.85;;
2452;SDS011;63678;47.994;7.854;2023-06-26T11:22:56;12.23;;;8.43;;
2452;SDS011;63678;47.994;7.854;2023-06-26T11:25:30;11.68;;;8.45;;
2452;SDS011;63678;47.994;7.854;2023-06-26T11:28:09;14.40;;;8.60;;
2452;SDS011;63678;47.994;7.854;2023-06-26T11:30:42;12.73;;;8.30;;
2452;SDS011;63678;47.994;7.854;2023-06-26T11:33:15;13.88;;;8.30;;
2452;SDS011;63678;47.994;7.854;2023-06-26T11:35:47;12.55;;;8.43;;
2452;SDS011;63678;47.994;7.854;2023-06-26T11:38:19;18.23;;;8.13;;
2452;SDS011;63678;47.994;7.854;2023-06-26T11:40:52;14.10;;;8.30;;
2452;SDS011;63678;47.994;7.854;2023-06-26T11:43:24;13.98;;;8.68;;
2452;SDS011;63678;47.994;7.854;2023-06-26T11:45:57;14.05;;;7.72;;
2452;SDS011;63678;47.994;7.854;2023-06-26T11:48:29;12.23;;;7.88;;
2452;SDS011;63678;47.994;7.854;2023-06-26T11:51:04;12.73;;;7.80;;
2452;SDS011;63678;47.994;7.854;2023-06-26T11:53:40;13.07;;;8.30;;
2452;SDS011;63678;47.994;7.854;2023-06-26T11:56:15;12.30;;;7.93;;
2452;SDS011;63678;47.994;7.854;2023-06-26T12:01:42;10.18;;;7.05;;
2452;SDS011;63678;47.994;7.854;2023-06-26T12:04:18;10.85;;;7.07;;
2452;SDS011;63678;47.994;7.854;2023-06-26T12:06:52;11.23;;;7.30;;
2452;SDS011;63678;47.994;7.854;2023-06-26T12:09:31;9.88;;;7.18;;
2452;SDS011;63678;47.994;7.854;2023-06-26T12:12:05;11.38;;;7.80;;
2452;SDS011;63678;47.994;7.854;2023-06-26T12:14:38;9.77;;;7.20;;
2452;SDS011;63678;47.994;7.854;2023-06-26T12:17:13;11.88;;;7.43;;
2452;SDS011;63678;47.994;7.854;2023-06-26T12:19:46;12.90;;;7.40;;
2452;SDS011;63678;47.994;7.854;2023-06-26T12:22:19;13.52;;;7.28;;
2452;SDS011;63678;47.994;7.854;2023-06-26T12:24:52;11.82;;;7.53;;
2452;SDS011;63678;47.994;7.854;2023-06-26T12:27:28;16.08;;;8.10;;
2452;SDS011;63678;47.994;7.854;2023-06-26T12:30:02;11.13;;;7.10;;
2452;SDS011;63678;47.994;7.854;2023-06-26T12:32:36;11.83;;;7.10;;
2452;SDS011;63678;47.994;7.854;2023-06-26T12:35:08;11.43;;;6.60;;
2452;SDS011;63678;47.994;7.854;2023-06-26T12:37:42;11.07;;;6.85;;
2452;SDS011;63678;47.994;7.854;2023-06-26T12:40:17;9.57;;;6.60;;
2452;SDS011;63678;47.994;7.854;2023-06-26T12:42:50;10.35;;;6.63;;
2452;SDS011;63678;47.994;7.854;2023-06-26T12:45:23;13.37;;;6.73;;
2452;SDS011;63678;47.994;7.854;2023-06-26T12:48:07;13.73;;;6.47;;
2452;SDS011;63678;47.994;7.854;2023-06-26T12:50:44;13.10;;;6.68;;
2452;SDS011;63678;47.994;7.854;2023-06-26T12:53:17;10.73;;;7.28;;
2452;SDS011;63678;47.994;7.854;2023-06-26T12:55:49;10.57;;;7.00;;
2452;SDS011;63678;47.994;7.854;2023-06-26T12:58:22;10.27;;;6.60;;
2452;SDS011;63678;47.994;7.854;2023-06-26T13:00:54;10.00;;;6.93;;
2452;SDS011;63678;47.994;7.854;2023-06-26T13:03:29;9.02;;;6.72;;
2452;SDS011;63678;47.994;7.854;2023-06-26T13:06:02;11.30;;;6.93;;
2452;SDS011;63678;47.994;7.854;2023-06-26T13:08:34;12.60;;;6.32;;
2452;SDS011;63678;47.994;7.854;2023-06-26T13:11:07;9.60;;;5.53;;
2452;SDS011;63678;47.994;7.854;2023-06-26T13:13:40;11.15;;;6.13;;
2452;SDS011;63678;47.994;7.854;2023-06-26T13:16:12;9.88;;;6.28;;
2452;SDS011;63678;47.994;7.854;2023-06-26T13:18:45;8.85;;;6.07;;
2452;SDS011;63678;47.994;7.854;2023-06-26T13:21:17;12.32;;;6.30;;
2452;SDS011;63678;47.994;7.854;2023-06-26T13:23:50;9.33;;;5.50;;
2452;SDS011;63678;47.994;7.854;2023-06-26T13:26:22;7.78;;;5.47;;
2452;SDS011;63678;47.994;7.854;2023-06-26T13:29:08;9.65;;;5.20;;
2452;SDS011;63678;47.994;7.854;2023-06-26T13:31:40;10.45;;;5.57;;
2452;SDS011;63678;47.994;7.854;2023-06-26T13:34:23;8.35;;;5.57;;
2452;SDS011;63678;47.994;7.854;2023-06-26T13:36:59;10.13;;;5.97;;
2452;SDS011;63678;47.994;7.854;2023-06-26T13:39:31;12.73;;;6.10;;
2452;SDS011;63678;47.994;7.854;2023-06-26T13:42:04;9.43;;;5.65;;
2452;SDS011;63678;47.994;7.854;2023-06-26T13:44:37;9.70;;;5.50;;
2452;SDS011;63678;47.994;7.854;2023-06-26T13:47:26;10.38;;;5.80;;
2452;SDS011;63678;47.994;7.854;2023-06-26T13:49:59;8.57;;;5.60;;
2452;SDS011;63678;47.994;7.854;2023-06-26T13:52:31;12.30;;;5.63;;
2452;SDS011;63678;47.994;7.854;2023-06-26T13:55:04;11.18;;;5.28;;
2452;SDS011;63678;47.994;7.854;2023-06-26T13:57:37;8.60;;;5.47;;
2452;SDS011;63678;47.994;7.854;2023-06-26T14:00:13;10.85;;;5.13;;
2452;SDS011;63678;47.994;7.854;2023-06-26T14:02:48;8.50;;;5.47;;
2452;SDS011;63678;47.994;7.854;2023-06-26T14:05:20;10.65;;;5.63;;
2452;SDS011;63678;47.994;7.854;2023-06-26T14:08:06;15.45;;;5.45;;
2452;SDS011;63678;47.994;7.854;2023-06-26T14:10:40;8.43;;;5.45;;
2452;SDS011;63678;47.994;7.854;2023-06-26T14:13:13;8.68;;;5.38;;
2452;SDS011;63678;47.994;7.854;2023-06-26T14:15:47;8.63;;;5.30;;
2452;SDS011;63678;47.994;7.854;2023-06-26T14:18:19;8.68;;;4.53;;
2452;SDS011;63678;47.994;7.854;2023-06-26T14:20:55;7.25;;;4.78;;
2452;SDS011;63678;47.994;7.854;2023-06-26T14:23:28;8.85;;;4.50;;
2452;SDS011;63678;47.994;7.854;2023-06-26T14:26:00;6.97;;;4.30;;
2452;SDS011;63678;47.994;7.854;2023-06-26T14:28:33;8.70;;;4.13;;
2452;SDS011;63678;47.994;7.854;2023-06-26T14:31:05;8.15;;;4.30;;
2452;SDS011;63678;47.994;7.854;2023-06-26T14:33:38;8.02;;;5.00;;
2452;SDS011;63678;47.994;7.854;2023-06-26T14:36:10;9.13;;;4.90;;
2452;SDS011;63678;47.994;7.854;2023-06-26T14:38:42;6.60;;;3.88;;
2452;SDS011;63678;47.994;7.854;2023-06-26T14:41:15;7.37;;;4.00;;
2452;SDS011;63678;47.994;7.854;2023-06-26T14:43:48;8.30;;;3.95;;
2452;SDS011;63678;47.994;7.854;2023-06-26T14:46:21;8.45;;;4.43;;
2452;SDS011;63678;47.994;7.854;2023-06-26T14:48:54;6.90;;;4.15;;
2452;SDS011;63678;47.994;7.854;2023-06-26T14:51:27;6.38;;;4.25;;
2452;SDS011;63678;47.994;7.854;2023-06-26T14:53:59;7.43;;;4.00;;
2452;SDS011;63678;47.994;7.854;2023-06-26T14:56:32;7.88;;;4.57;;
2452;SDS011;63678;47.994;7.854;2023-06-26T14:59:05;7.85;;;4.63;;
2452;SDS011;63678;47.994;7.854;2023-06-26T15:01:39;9.25;;;4.60;;
2452;SDS011;63678;47.994;7.854;2023-06-26T15:04:11;10.57;;;4.60;;
2452;SDS011;63678;47.994;7.854;2023-06-26T15:06:44;7.63;;;4.30;;
2452;SDS011;63678;47.994;7.854;2023-06-26T15:09:17;9.88;;;4.50;;
2452;SDS011;63678;47.994;7.854;2023-06-26T15:11:50;6.75;;;4.18;;
2452;SDS011;63678;47.994;7.854;2023-06-26T15:14:23;8.57;;;4.95;;
2452;SDS011;63678;47.994;7.854;2023-06-26T15:16:55;10.82;;;5.18;;
2452;SDS011;63678;47.994;7.854;2023-06-26T15:19:27;9.50;;;4.77;;
2452;SDS011;63678;47.994;7.854;2023-06-26T15:22:00;9.10;;;5.15;;
2452;SDS011;63678;47.994;7.854;2023-06-26T15:24:34;9.35;;;4.82;;
2452;SDS011;63678;47.994;7.854;2023-06-26T15:27:07;9.57;;;5.55;;
2452;SDS011;63678;47.994;7.854;2023-06-26T15:29:40;8.15;;;5.20;;
2452;SDS011;63678;47.994;7.854;2023-06-26T15:32:15;10.07;;;5.60;;
2452;SDS011;63678;47.994;7.854;2023-06-26T15:34:48;8.43;;;5.00;;
2452;SDS011;63678;47.994;7.854;2023-06-26T15:37:21;8.52;;;4.95;;
2452;SDS011;63678;47.994;7.854;2023-06-26T15:39:53;9.20;;;4.97;;
2452;SDS011;63678;47.994;7.854;2023-06-26T15:42:26;9.20;;;5.05;;